Time;durP1;ratioP1;P1;durP2;ratioP2;P2;SDS_P1;SDS_P2;PMS_P1;PMS_P2;Temp;Humidity;BMP_temperature;BMP_pressure;BME280_temperature;BME280_humidity;BME280_pressure;Samples;Min_cycle;Max_cycle;Signal;HPM_P1;HPM_P2
2021/04/30 00:00:57;;;;;;;12.37;11.17;;;6.50;54.90;;;;;;5011429;28;20519;-86
2021/04/30 00:03:43;;;;;;;11.93;10.70;;;6.20;55.20;;;;;;5009538;28;20470;-85
2021/04/30 00:06:20;;;;;;;11.13;10.10;;;6.30;55.50;;;;;;4996501;28;20459;-85
2021/04/30 00:08:56;;;;;;;10.50;9.40;;;6.30;55.50;;;;;;5002303;28;20455;-84
2021/04/30 00:11:31;;;;;;;10.83;9.83;;;6.30;55.50;;;;;;4997667;28;20448;-86
2021/04/30 00:14:06;;;;;;;10.17;9.27;;;6.20;55.70;;;;;;4995950;28;20460;-84
2021/04/30 00:16:42;;;;;;;10.70;9.70;;;6.00;56.00;;;;;;4997238;28;20476;-85
2021/04/30 00:19:19;;;;;;;10.73;9.83;;;5.80;56.40;;;;;;5015368;28;20467;-84
2021/04/30 00:21:59;;;;;;;9.33;8.53;;;5.80;56.70;;;;;;5011313;28;20451;-86
2021/04/30 00:24:33;;;;;;;10.53;9.53;;;5.90;56.60;;;;;;4977324;28;20480;-85
2021/04/30 00:27:12;;;;;;;11.60;10.50;;;5.80;56.70;;;;;;5001185;28;20448;-85
2021/04/30 00:29:52;;;;;;;11.50;10.30;;;5.90;57.10;;;;;;4998143;28;20451;-84
2021/04/30 00:32:40;;;;;;;11.60;10.50;;;5.70;57.00;;;;;;4998113;28;20880;-86
2021/04/30 00:35:16;;;;;;;11.90;10.70;;;5.60;57.40;;;;;;5002872;28;20455;-85
2021/04/30 00:37:51;;;;;;;13.17;11.93;;;5.70;57.80;;;;;;5000151;28;20496;-85
2021/04/30 00:40:27;;;;;;;12.73;11.50;;;5.50;58.00;;;;;;5009316;28;20463;-85
2021/04/30 00:43:02;;;;;;;13.10;11.57;;;5.50;58.40;;;;;;5004368;28;20479;-85
2021/04/30 00:45:39;;;;;;;11.83;10.83;;;5.50;58.80;;;;;;5000821;28;20447;-84
2021/04/30 00:48:15;;;;;;;12.37;11.27;;;5.40;59.10;;;;;;4985254;28;20471;-84
2021/04/30 00:50:52;;;;;;;13.93;11.50;;;5.30;59.60;;;;;;5011564;28;21052;-84
2021/04/30 00:53:27;;;;;;;12.80;11.23;;;5.20;60.10;;;;;;5006461;28;20492;-84
2021/04/30 00:56:02;;;;;;;11.43;10.33;;;5.30;60.60;;;;;;4996346;28;20463;-85
2021/04/30 00:58:37;;;;;;;11.50;10.40;;;5.30;60.90;;;;;;4986486;28;20459;-85
2021/04/30 01:01:13;;;;;;;11.50;10.40;;;5.30;61.10;;;;;;4993154;28;20757;-85
2021/04/30 01:03:49;;;;;;;11.30;10.20;;;5.40;61.60;;;;;;4987356;28;20478;-85
2021/04/30 01:06:31;;;;;;;13.40;12.10;;;5.30;61.70;;;;;;4994164;28;20458;-84
2021/04/30 01:09:07;;;;;;;12.77;11.50;;;5.30;62.60;;;;;;4986418;28;20460;-85
2021/04/30 01:11:41;;;;;;;12.97;11.67;;;5.30;62.70;;;;;;4992611;28;20460;-84
2021/04/30 01:14:22;;;;;;;12.33;11.03;;;5.30;63.00;;;;;;4989564;28;20452;-84
2021/04/30 01:16:57;;;;;;;12.87;11.47;;;5.30;63.30;;;;;;4993313;28;20551;-85
2021/04/30 01:19:32;;;;;;;14.43;11.67;;;5.10;63.90;;;;;;4990032;28;20490;-85
2021/04/30 01:22:09;;;;;;;13.30;11.80;;;5.00;64.60;;;;;;4996727;28;20451;-85
2021/04/30 01:24:44;;;;;;;17.23;11.70;;;5.10;64.20;;;;;;4987962;28;20487;-85
2021/04/30 01:27:23;;;;;;;12.80;11.50;;;5.20;64.30;;;;;;4994230;28;20484;-85
2021/04/30 01:29:58;;;;;;;13.63;12.33;;;5.30;63.60;;;;;;4989998;28;20498;-84
2021/04/30 01:32:39;;;;;;;12.00;10.90;;;5.30;63.60;;;;;;4991234;28;20452;-84
2021/04/30 01:35:20;;;;;;;13.90;11.73;;;5.40;63.40;;;;;;4987525;28;20514;-85
2021/04/30 01:37:58;;;;;;;13.13;11.83;;;5.30;63.00;;;;;;4972513;28;20764;-84
2021/04/30 01:40:35;;;;;;;12.03;10.83;;;5.10;63.20;;;;;;4990601;28;20542;-84
2021/04/30 01:43:12;;;;;;;13.47;12.07;;;5.10;63.80;;;;;;4993876;28;20552;-84
2021/04/30 01:45:52;;;;;;;12.77;11.50;;;5.10;63.80;;;;;;4993274;28;20460;-84
2021/04/30 01:48:29;;;;;;;13.87;11.57;;;5.00;64.50;;;;;;4982359;28;20500;-84
2021/04/30 01:51:06;;;;;;;14.53;13.03;;;5.10;64.40;;;;;;5000158;28;20439;-84
2021/04/30 01:53:51;;;;;;;13.40;12.07;;;5.10;63.90;;;;;;5003131;28;20452;-84
2021/04/30 01:56:26;;;;;;;13.77;12.40;;;5.20;63.70;;;;;;4996629;28;20462;-85
2021/04/30 01:59:01;;;;;;;13.40;12.03;;;5.10;63.90;;;;;;4992313;28;20486;-85
2021/04/30 02:01:41;;;;;;;12.90;11.53;;;5.20;63.50;;;;;;5007556;28;20466;-83
2021/04/30 02:04:20;;;;;;;14.17;12.47;;;5.10;63.40;;;;;;5006457;28;20471;-83
2021/04/30 02:06:55;;;;;;;14.57;12.70;;;5.00;63.80;;;;;;4975770;28;20454;-84
2021/04/30 02:09:31;;;;;;;15.30;13.33;;;5.00;63.90;;;;;;4995964;28;20900;-85
2021/04/30 02:12:08;;;;;;;15.23;12.63;;;5.00;64.20;;;;;;4998470;28;20936;-85
2021/04/30 02:14:42;;;;;;;14.10;12.00;;;4.80;64.80;;;;;;4996217;28;20471;-85
2021/04/30 02:17:17;;;;;;;14.77;13.27;;;4.70;65.20;;;;;;4997385;28;20466;-85
2021/04/30 02:19:52;;;;;;;13.70;12.30;;;4.70;65.70;;;;;;4997968;28;20478;-85
2021/04/30 02:22:29;;;;;;;14.97;12.97;;;4.70;66.40;;;;;;4977037;28;20985;-84
2021/04/30 02:25:18;;;;;;;13.97;12.53;;;4.80;66.10;;;;;;4977887;28;21132;-84
2021/04/30 02:27:56;;;;;;;14.07;12.63;;;4.70;66.30;;;;;;4996731;28;20512;-84
2021/04/30 02:30:39;;;;;;;17.90;13.70;;;4.80;66.00;;;;;;4998662;28;20479;-84
2021/04/30 02:33:15;;;;;;;14.80;13.30;;;4.80;65.50;;;;;;4993857;28;20459;-85
2021/04/30 02:35:52;;;;;;;14.10;12.60;;;4.90;65.20;;;;;;5010334;28;20459;-85
2021/04/30 02:38:28;;;;;;;15.07;13.57;;;4.90;65.30;;;;;;5000915;28;20485;-85
2021/04/30 02:41:09;;;;;;;14.80;13.30;;;4.90;65.10;;;;;;4994625;28;20447;-85
2021/04/30 02:43:43;;;;;;;13.37;12.07;;;4.90;65.00;;;;;;5013872;28;20469;-85
2021/04/30 02:46:18;;;;;;;15.07;13.53;;;4.90;64.60;;;;;;5017258;28;20466;-85
2021/04/30 02:49:01;;;;;;;13.90;12.50;;;4.90;64.50;;;;;;5013564;28;20443;-86
2021/04/30 02:51:36;;;;;;;14.50;13.00;;;4.90;64.70;;;;;;5000123;28;20456;-84
2021/04/30 02:54:10;;;;;;;15.47;13.87;;;4.80;64.70;;;;;;5010473;28;20442;-86
2021/04/30 02:56:52;;;;;;;13.87;12.37;;;4.80;65.30;;;;;;5003983;28;20473;-85
2021/04/30 02:59:26;;;;;;;15.90;13.27;;;4.80;65.20;;;;;;5019011;28;20467;-85
2021/04/30 03:02:02;;;;;;;16.37;13.80;;;4.60;66.10;;;;;;5014549;28;20444;-85
2021/04/30 03:04:43;;;;;;;15.53;13.50;;;4.50;66.70;;;;;;5000893;28;20472;-85
2021/04/30 03:07:19;;;;;;;17.17;14.00;;;4.60;66.90;;;;;;5002000;28;20453;-85
2021/04/30 03:09:56;;;;;;;16.67;14.00;;;4.40;67.60;;;;;;4988611;28;20884;-85
2021/04/30 03:12:29;;;;;;;17.27;15.10;;;4.30;68.30;;;;;;4999799;28;21018;-85
2021/04/30 03:15:05;;;;;;;17.57;15.20;;;4.30;69.00;;;;;;4990933;28;20502;-85
2021/04/30 03:17:45;;;;;;;16.03;14.30;;;4.40;68.80;;;;;;4993786;28;20473;-85
2021/04/30 03:20:21;;;;;;;17.77;14.70;;;4.40;68.70;;;;;;4993908;28;20462;-86
2021/04/30 03:22:56;;;;;;;18.13;15.47;;;4.20;69.60;;;;;;4992582;28;20483;-85
2021/04/30 03:25:31;;;;;;;18.37;15.60;;;4.10;70.60;;;;;;4994987;28;20506;-84
2021/04/30 03:28:18;;;;;;;18.53;16.27;;;4.10;71.30;;;;;;4996581;28;20459;-84
2021/04/30 03:30:53;;;;;;;19.07;17.07;;;4.20;71.50;;;;;;4997050;28;20460;-84
2021/04/30 03:33:28;;;;;;;20.23;16.77;;;4.20;71.80;;;;;;5004506;28;20462;-84
2021/04/30 03:36:03;;;;;;;22.80;16.00;;;4.30;71.40;;;;;;5009956;28;20451;-83
2021/04/30 03:38:38;;;;;;;18.67;15.30;;;4.40;71.70;;;;;;5010592;28;20479;-84
2021/04/30 03:41:18;;;;;;;17.13;14.97;;;4.50;71.80;;;;;;5010823;28;20455;-84
2021/04/30 03:43:55;;;;;;;21.77;17.37;;;4.50;71.50;;;;;;5003870;28;20514;-84
2021/04/30 03:46:30;;;;;;;18.80;14.97;;;4.60;71.50;;;;;;5005343;28;20467;-83
2021/04/30 03:49:05;;;;;;;15.90;14.30;;;4.60;71.80;;;;;;5009165;28;20454;-83
2021/04/30 03:51:40;;;;;;;15.73;14.00;;;4.60;71.40;;;;;;5010435;28;20467;-85
2021/04/30 03:54:15;;;;;;;16.43;14.30;;;4.70;71.90;;;;;;5002202;28;20449;-84
2021/04/30 03:56:49;;;;;;;20.40;16.10;;;4.40;72.20;;;;;;4996775;28;21014;-83
2021/04/30 03:59:26;;;;;;;17.63;15.43;;;4.30;72.90;;;;;;4994725;28;20502;-83
2021/04/30 04:02:01;;;;;;;22.10;15.63;;;4.20;73.40;;;;;;4996803;28;20998;-83
2021/04/30 04:04:35;;;;;;;17.17;15.47;;;4.30;73.50;;;;;;5000275;28;21234;-83
2021/04/30 04:07:10;;;;;;;18.50;15.40;;;4.40;73.50;;;;;;4979702;28;20460;-84
2021/04/30 04:09:46;;;;;;;17.00;15.30;;;4.40;73.60;;;;;;5004990;28;20551;-84
2021/04/30 04:12:21;;;;;;;16.03;14.33;;;4.50;73.20;;;;;;4992709;28;20463;-83
2021/04/30 04:14:57;;;;;;;20.13;15.57;;;4.60;72.90;;;;;;4998088;28;20470;-84
2021/04/30 04:17:32;;;;;;;20.60;14.97;;;4.70;72.90;;;;;;4994288;28;20448;-84
2021/04/30 04:20:07;;;;;;;17.90;14.83;;;4.90;72.40;;;;;;5007065;28;20964;-84
2021/04/30 04:22:48;;;;;;;17.93;14.77;;;5.60;71.70;;;;;;5004396;28;20479;-84
2021/04/30 04:25:22;;;;;;;15.63;13.93;;;6.30;69.70;;;;;;5003410;28;20506;-84
2021/04/30 04:27:57;;;;;;;15.17;13.57;;;6.50;67.60;;;;;;5008815;28;20462;-85
2021/04/30 04:30:35;;;;;;;16.50;13.80;;;7.10;67.00;;;;;;5010523;28;20451;-85
2021/04/30 04:33:15;;;;;;;14.53;12.93;;;8.30;66.50;;;;;;5007829;28;20455;-85
2021/04/30 04:35:49;;;;;;;13.73;12.50;;;9.70;63.10;;;;;;5008730;28;20472;-84
2021/04/30 04:38:26;;;;;;;13.43;11.83;;;10.50;58.70;;;;;;5003886;28;21092;-84
2021/04/30 04:40:58;;;;;;;14.10;12.07;;;9.80;57.60;;;;;;5012700;28;20480;-84
2021/04/30 04:43:33;;;;;;;13.37;11.90;;;8.80;58.00;;;;;;4998690;28;20462;-84
2021/04/30 04:46:10;;;;;;;13.70;12.30;;;8.90;58.40;;;;;;5005366;28;20451;-84
2021/04/30 04:48:45;;;;;;;13.23;12.00;;;8.50;58.40;;;;;;4993946;28;20461;-84
2021/04/30 04:51:20;;;;;;;13.60;12.37;;;7.70;58.80;;;;;;4994170;28;20452;-84
2021/04/30 04:53:54;;;;;;;13.93;12.53;;;7.30;59.70;;;;;;4992687;28;20817;-84
2021/04/30 04:56:29;;;;;;;14.37;12.83;;;6.90;60.20;;;;;;4994322;28;20548;-84
2021/04/30 04:59:04;;;;;;;15.23;13.50;;;6.80;61.30;;;;;;4983092;28;20456;-84
2021/04/30 05:01:40;;;;;;;15.20;12.90;;;6.80;61.90;;;;;;4988311;28;20542;-84
2021/04/30 05:04:15;;;;;;;15.20;12.80;;;6.90;62.30;;;;;;4988566;28;20479;-84
2021/04/30 05:06:49;;;;;;;14.20;12.80;;;7.10;62.10;;;;;;4985435;28;20478;-84
2021/04/30 05:09:28;;;;;;;14.80;13.27;;;7.20;61.90;;;;;;4988787;28;20463;-84
2021/04/30 05:12:02;;;;;;;14.37;12.93;;;7.20;61.20;;;;;;4994548;28;20798;-85
2021/04/30 05:14:37;;;;;;;14.43;13.03;;;7.40;61.00;;;;;;4990763;28;20456;-84
2021/04/30 05:17:13;;;;;;;16.53;13.97;;;7.20;61.60;;;;;;4991970;28;20445;-83
2021/04/30 05:19:48;;;;;;;15.10;13.60;;;7.10;62.50;;;;;;4995319;28;20514;-83
2021/04/30 05:22:23;;;;;;;19.77;13.97;;;7.10;63.10;;;;;;4989567;28;20972;-84
2021/04/30 05:25:16;;;;;;;18.37;15.30;;;7.00;63.20;;;;;;4990519;28;20487;-85
2021/04/30 05:27:50;;;;;;;18.23;15.77;;;6.90;63.20;;;;;;4993346;28;20463;-85
2021/04/30 05:30:26;;;;;;;16.90;14.43;;;7.10;63.30;;;;;;4996946;28;21006;-84
2021/04/30 05:33:02;;;;;;;17.30;14.60;;;7.00;62.90;;;;;;5002302;28;20448;-83
2021/04/30 05:35:42;;;;;;;20.47;14.40;;;7.40;63.20;;;;;;4999345;28;20793;-82
2021/04/30 05:38:22;;;;;;;20.40;16.83;;;7.80;62.20;;;;;;5003246;28;20493;-85
2021/04/30 05:40:56;;;;;;;19.30;17.30;;;8.20;60.90;;;;;;5003082;28;20467;-83
2021/04/30 05:43:31;;;;;;;18.20;16.23;;;8.70;60.20;;;;;;5010612;28;20494;-85
2021/04/30 05:46:06;;;;;;;18.73;16.83;;;8.60;58.90;;;;;;5007454;28;20460;-84
2021/04/30 05:48:42;;;;;;;19.73;16.60;;;8.90;59.00;;;;;;5005362;28;20477;-84
2021/04/30 05:51:16;;;;;;;18.90;17.00;;;9.40;58.70;;;;;;4999584;28;20461;-83
2021/04/30 05:53:52;;;;;;;20.60;17.27;;;9.50;57.80;;;;;;4988116;28;20522;-85
2021/04/30 05:56:28;;;;;;;16.90;14.50;;;9.60;56.50;;;;;;5000197;28;20582;-84
2021/04/30 05:59:10;;;;;;;16.40;14.70;;;9.50;56.30;;;;;;4995777;28;20444;-85
2021/04/30 06:01:45;;;;;;;16.53;14.73;;;9.20;55.70;;;;;;4991643;28;20464;-84
2021/04/30 06:04:22;;;;;;;18.87;14.80;;;8.90;56.00;;;;;;4985223;28;20472;-83
2021/04/30 06:06:56;;;;;;;17.70;14.63;;;8.70;55.90;;;;;;4995913;28;20459;-84
2021/04/30 06:09:31;;;;;;;16.93;15.23;;;9.00;55.80;;;;;;5001469;28;20480;-86
2021/04/30 06:12:06;;;;;;;15.80;14.17;;;9.10;55.40;;;;;;5010292;28;20524;-85
2021/04/30 06:14:40;;;;;;;19.00;14.80;;;8.40;54.70;;;;;;5000888;28;20802;-83
2021/04/30 06:17:15;;;;;;;17.27;15.57;;;8.60;55.40;;;;;;4996704;28;20455;-85
2021/04/30 06:19:51;;;;;;;15.67;13.90;;;8.70;54.90;;;;;;4995559;28;20474;-86
2021/04/30 06:22:26;;;;;;;16.37;14.43;;;8.50;55.40;;;;;;4994831;28;21048;-84
2021/04/30 06:25:01;;;;;;;17.37;14.53;;;8.30;55.60;;;;;;4995797;28;21234;-85
2021/04/30 06:27:36;;;;;;;15.10;13.50;;;8.60;55.10;;;;;;4993954;28;20490;-84
2021/04/30 06:30:14;;;;;;;16.83;14.53;;;8.50;54.60;;;;;;4993466;28;20444;-86
2021/04/30 06:32:52;;;;;;;17.13;15.30;;;8.40;54.70;;;;;;4987045;28;20468;-87
2021/04/30 06:35:34;;;;;;;24.60;14.80;;;8.30;54.90;;;;;;4980784;28;20472;-85
2021/04/30 06:38:11;;;;;;;18.53;14.07;;;8.70;54.50;;;;;;4993653;28;20474;-85
2021/04/30 06:40:46;;;;;;;16.53;14.83;;;9.00;54.60;;;;;;4998770;28;20464;-85
2021/04/30 06:43:27;;;;;;;16.53;14.00;;;8.70;54.30;;;;;;5001115;28;20460;-85
2021/04/30 06:46:09;;;;;;;15.87;14.23;;;8.60;54.00;;;;;;4993296;28;20452;-85
2021/04/30 06:48:44;;;;;;;16.10;14.40;;;8.40;53.40;;;;;;4991849;28;21036;-84
2021/04/30 06:51:22;;;;;;;17.03;13.20;;;8.50;54.10;;;;;;5002352;28;20444;-86
2021/04/30 06:53:57;;;;;;;15.17;13.57;;;9.00;53.60;;;;;;5015168;28;20460;-86
2021/04/30 06:56:43;;;;;;;16.30;14.60;;;8.80;53.70;;;;;;5012368;28;20477;-87
2021/04/30 06:59:19;;;;;;;14.70;13.30;;;8.80;53.70;;;;;;5008396;28;20462;-85
2021/04/30 07:01:55;;;;;;;15.60;14.00;;;9.30;53.80;;;;;;5015825;28;20449;-85
2021/04/30 07:04:30;;;;;;;14.80;13.07;;;9.50;53.40;;;;;;5012769;28;20491;-85
2021/04/30 07:07:23;;;;;;;14.63;13.20;;;9.40;53.10;;;;;;5028533;28;20436;-85
2021/04/30 07:10:04;;;;;;;14.33;12.83;;;9.40;53.60;;;;;;5016176;28;20483;-85
2021/04/30 07:12:39;;;;;;;15.97;12.93;;;9.60;53.10;;;;;;4994269;28;20476;-85
2021/04/30 07:18:01;;;;;;;15.93;14.30;;;9.70;52.30;;;;;;4989151;28;20440;-85
2021/04/30 07:20:37;;;;;;;15.10;13.50;;;9.90;52.00;;;;;;4994839;28;20467;-84
2021/04/30 07:23:12;;;;;;;15.97;14.37;;;9.70;52.50;;;;;;4998747;28;20863;-86
2021/04/30 07:25:47;;;;;;;14.83;13.43;;;9.90;52.20;;;;;;5001556;28;20650;-86
2021/04/30 07:28:23;;;;;;;15.53;13.97;;;10.30;51.10;;;;;;5009867;28;20460;-87
2021/04/30 07:30:59;;;;;;;16.10;14.50;;;10.00;51.00;;;;;;5009440;28;20607;-85
2021/04/30 07:36:33;;;;;;;14.90;13.40;;;10.30;50.70;;;;;;5006786;28;20474;-85
2021/04/30 07:39:22;;;;;;;15.90;14.40;;;10.10;51.00;;;;;;4999368;28;20975;-83
2021/04/30 07:41:59;;;;;;;15.50;13.90;;;10.60;51.00;;;;;;5006314;28;20548;-83
2021/04/30 07:44:34;;;;;;;15.57;13.93;;;10.10;50.90;;;;;;4999766;28;20491;-84
2021/04/30 07:47:12;;;;;;;16.30;14.80;;;10.20;50.50;;;;;;4995256;28;20463;-84
2021/04/30 07:49:52;;;;;;;16.00;14.40;;;9.90;51.40;;;;;;4999134;28;20460;-83
2021/04/30 07:52:29;;;;;;;15.90;14.20;;;9.80;50.70;;;;;;4991992;28;20476;-84
2021/04/30 07:55:05;;;;;;;15.80;14.30;;;10.50;50.10;;;;;;4998341;28;20516;-85
2021/04/30 07:57:41;;;;;;;16.73;14.20;;;11.20;49.30;;;;;;4996645;28;20471;-85
2021/04/30 08:00:19;;;;;;;19.10;13.83;;;11.60;48.90;;;;;;4998516;28;20543;-84
2021/04/30 08:03:03;;;;;;;16.37;14.77;;;11.20;48.90;;;;;;4999400;28;20484;-84
2021/04/30 08:05:38;;;;;;;14.73;13.27;;;10.60;49.20;;;;;;4986012;28;20480;-85
2021/04/30 08:08:13;;;;;;;15.00;13.50;;;10.70;49.40;;;;;;5001311;28;20883;-85
2021/04/30 08:10:50;;;;;;;15.47;13.77;;;11.00;48.80;;;;;;5003637;28;20475;-81
2021/04/30 08:13:25;;;;;;;15.00;13.70;;;10.90;48.40;;;;;;5002285;28;21082;-85
2021/04/30 08:16:00;;;;;;;15.17;13.67;;;11.20;48.30;;;;;;4994928;28;20604;-83
2021/04/30 08:18:35;;;;;;;17.63;15.13;;;11.50;48.40;;;;;;5000617;28;20467;-85
2021/04/30 08:21:10;;;;;;;15.63;14.03;;;11.00;48.60;;;;;;4993991;28;20460;-85
2021/04/30 08:23:45;;;;;;;16.10;14.40;;;11.20;48.50;;;;;;4998522;28;20887;-83
2021/04/30 08:26:20;;;;;;;16.03;14.07;;;11.50;48.30;;;;;;4996681;28;20539;-82
2021/04/30 08:28:56;;;;;;;15.50;14.10;;;11.60;47.80;;;;;;4977023;28;20456;-84
2021/04/30 08:31:31;;;;;;;15.60;14.03;;;11.40;47.60;;;;;;4984758;28;20882;-84
2021/04/30 08:34:04;;;;;;;13.00;11.63;;;10.80;47.90;;;;;;4988018;28;20457;-84
2021/04/30 08:36:39;;;;;;;16.93;13.07;;;11.40;48.00;;;;;;4992347;28;20450;-84
2021/04/30 08:39:14;;;;;;;13.87;12.50;;;11.50;47.80;;;;;;4992337;28;20498;-84
2021/04/30 08:41:51;;;;;;;17.80;14.53;;;11.50;47.70;;;;;;5002888;28;20455;-83
2021/04/30 08:44:26;;;;;;;15.67;12.63;;;11.60;48.20;;;;;;5003736;28;20469;-83
2021/04/30 08:47:11;;;;;;;14.00;12.60;;;11.50;47.70;;;;;;4998336;28;20452;-84
2021/04/30 08:49:47;;;;;;;13.37;11.97;;;12.00;47.40;;;;;;4995827;28;20503;-84
2021/04/30 08:52:23;;;;;;;19.53;13.03;;;12.50;47.00;;;;;;4998151;28;20468;-84
2021/04/30 08:55:04;;;;;;;13.80;12.30;;;12.80;46.90;;;;;;4998781;28;20462;-86
2021/04/30 08:57:40;;;;;;;12.10;10.87;;;13.00;45.80;;;;;;5000789;28;20461;-84
2021/04/30 09:03:05;;;;;;;12.50;11.40;;;12.80;45.00;;;;;;5001020;28;20465;-81
2021/04/30 09:05:40;;;;;;;13.20;11.80;;;12.60;45.70;;;;;;5005104;28;20483;-86
2021/04/30 09:08:14;;;;;;;13.57;12.27;;;13.30;45.60;;;;;;5005488;28;20456;-86
2021/04/30 09:10:56;;;;;;;13.33;11.90;;;13.80;44.90;;;;;;4993149;28;20477;-80
2021/04/30 09:13:31;;;;;;;18.67;11.97;;;14.10;44.40;;;;;;4991954;28;20463;-84
2021/04/30 09:16:24;;;;;;;14.43;12.00;;;13.30;44.20;;;;;;5002671;28;20460;-84
2021/04/30 09:18:59;;;;;;;13.60;12.20;;;13.20;44.80;;;;;;4996720;28;20461;-80
2021/04/30 09:21:35;;;;;;;14.07;12.67;;;13.30;44.60;;;;;;4997431;28;20446;-84
2021/04/30 09:24:14;;;;;;;13.63;12.33;;;13.30;43.90;;;;;;4996952;28;20470;-83
2021/04/30 09:26:52;;;;;;;13.10;11.97;;;12.80;44.30;;;;;;5014119;28;20448;-81
2021/04/30 09:29:32;;;;;;;12.53;11.33;;;12.60;44.60;;;;;;5001123;28;21250;-82
2021/04/30 09:32:17;;;;;;;13.90;12.70;;;12.50;44.70;;;;;;5003633;28;20460;-82
2021/04/30 09:34:58;;;;;;;14.10;12.87;;;12.30;44.80;;;;;;4987115;28;20457;-83
2021/04/30 09:37:33;;;;;;;14.07;12.80;;;11.90;45.50;;;;;;4983207;28;20536;-82
2021/04/30 09:40:10;;;;;;;14.70;13.30;;;12.30;45.30;;;;;;4998903;28;20525;-80
2021/04/30 09:42:45;;;;;;;14.43;13.10;;;12.50;45.40;;;;;;4993278;28;20788;-82
2021/04/30 09:45:21;;;;;;;13.63;12.20;;;12.50;45.00;;;;;;5000401;28;20563;-82
2021/04/30 09:47:58;;;;;;;15.02;13.73;;;12.50;45.00;;;;;;4993250;28;20480;-80
2021/04/30 09:50:35;;;;;;;13.80;12.50;;;12.00;45.20;;;;;;4990620;28;20200;-84
2021/04/30 09:53:10;;;;;;;13.40;12.10;;;12.10;45.50;;;;;;4996463;28;20479;-79
2021/04/30 09:55:50;;;;;;;16.13;13.33;;;12.00;45.30;;;;;;4990328;28;20527;-84
2021/04/30 09:58:26;;;;;;;14.73;13.32;;;11.80;45.50;;;;;;4998202;28;20507;-83
2021/04/30 10:01:24;;;;;;;14.20;12.90;;;11.80;45.50;;;;;;4993305;28;20205;-83
2021/04/30 10:03:59;;;;;;;14.00;12.50;;;11.30;45.60;;;;;;5001374;28;20480;-84
2021/04/30 10:06:34;;;;;;;13.93;12.63;;;11.40;45.50;;;;;;4993048;28;20469;-82
2021/04/30 10:09:12;;;;;;;14.10;12.70;;;12.00;45.70;;;;;;4987599;28;20484;-84
2021/04/30 10:11:46;;;;;;;14.40;12.90;;;12.30;45.70;;;;;;5000762;28;20508;-84
2021/04/30 10:14:21;;;;;;;18.90;11.53;;;12.50;45.20;;;;;;4998729;28;20488;-82
2021/04/30 10:16:57;;;;;;;14.53;13.03;;;12.80;45.10;;;;;;4999102;28;20493;-84
2021/04/30 10:19:33;;;;;;;13.37;12.10;;;13.40;44.80;;;;;;4998789;28;20444;-83
2021/04/30 10:22:09;;;;;;;13.37;11.90;;;14.80;44.70;;;;;;5005103;28;20464;-83
2021/04/30 10:24:48;;;;;;;15.10;13.50;;;16.00;43.90;;;;;;5005577;28;20468;-83
2021/04/30 10:27:29;;;;;;;14.77;13.27;;;14.90;43.60;;;;;;5011195;28;20469;-82
2021/04/30 10:30:24;;;;;;;14.20;12.37;;;14.60;43.80;;;;;;5007997;28;20628;-84
2021/04/30 10:33:13;;;;;;;15.47;13.87;;;14.80;43.80;;;;;;5009157;28;20544;-83
2021/04/30 10:35:52;;;;;;;13.43;11.87;;;14.60;43.80;;;;;;5008898;28;20461;-82
2021/04/30 10:38:31;;;;;;;14.67;13.53;;;14.70;44.10;;;;;;5014606;28;20531;-82
2021/04/30 10:41:15;;;;;;;13.30;12.00;;;14.50;43.20;;;;;;4994636;28;20465;-85
2021/04/30 10:43:52;;;;;;;13.03;11.93;;;14.00;43.90;;;;;;5012542;28;20542;-82
2021/04/30 10:46:30;;;;;;;13.20;11.83;;;14.30;44.20;;;;;;5012713;28;21596;-83
2021/04/30 10:49:24;;;;;;;12.93;11.70;;;15.00;43.40;;;;;;4987579;28;20462;-83
2021/04/30 10:52:21;;;;;;;12.67;11.50;;;14.50;43.80;;;;;;5003512;28;21158;-83
2021/04/30 10:55:07;;;;;;;14.23;12.93;;;14.40;43.20;;;;;;4991557;28;20536;-81
2021/04/30 10:58:06;;;;;;;13.00;11.90;;;13.70;43.50;;;;;;4994805;28;20463;-82
2021/04/30 11:00:47;;;;;;;11.83;10.67;;;14.20;43.80;;;;;;4950895;28;20938;-83
2021/04/30 11:03:24;;;;;;;12.50;11.40;;;14.70;43.40;;;;;;4997683;28;20543;-79
2021/04/30 11:06:06;;;;;;;12.47;10.97;;;15.10;42.80;;;;;;4991181;28;20869;-80
2021/04/30 11:09:00;;;;;;;13.40;12.07;;;14.80;42.90;;;;;;4994660;28;20452;-80
2021/04/30 11:11:43;;;;;;;11.30;10.30;;;14.80;42.80;;;;;;4994335;28;20199;-79
2021/04/30 11:14:37;;;;;;;12.00;10.83;;;14.90;42.90;;;;;;5000098;28;20575;-84
2021/04/30 11:17:12;;;;;;;12.05;11.05;;;15.40;43.20;;;;;;4993037;28;20546;-82
2021/04/30 11:20:12;;;;;;;12.10;11.03;;;16.00;42.60;;;;;;4997674;28;20442;-81
2021/04/30 11:23:00;;;;;;;11.50;10.33;;;14.80;42.00;;;;;;4993359;28;20522;-82
2021/04/30 11:25:35;;;;;;;12.77;10.90;;;15.40;42.70;;;;;;4995088;28;20967;-79
2021/04/30 11:28:09;;;;;;;11.20;10.20;;;15.60;42.50;;;;;;4997641;28;20448;-84
2021/04/30 11:31:05;;;;;;;12.27;11.07;;;14.50;40.30;;;;;;4999759;28;20458;-83
2021/04/30 11:33:44;;;;;;;11.57;10.57;;;15.70;42.60;;;;;;4997496;28;20463;-83
2021/04/30 11:36:28;;;;;;;13.30;11.23;;;15.10;41.30;;;;;;5003048;28;20450;-83
2021/04/30 11:39:20;;;;;;;11.47;10.40;;;16.50;42.30;;;;;;4998340;28;20444;-82
2021/04/30 11:42:02;;;;;;;11.70;10.73;;;16.30;41.80;;;;;;4995529;28;20470;-83
2021/04/30 11:44:39;;;;;;;12.17;11.07;;;14.90;42.20;;;;;;4996400;28;20834;-82
2021/04/30 11:47:17;;;;;;;10.00;9.10;;;16.00;41.30;;;;;;4997047;28;20459;-83
2021/04/30 11:49:57;;;;;;;12.60;10.60;;;16.60;41.20;;;;;;4995370;28;20643;-83
2021/04/30 11:52:43;;;;;;;11.97;10.70;;;15.90;40.30;;;;;;5001759;28;20450;-83
2021/04/30 11:55:22;;;;;;;11.07;10.07;;;16.90;40.50;;;;;;4998507;28;20471;-83
2021/04/30 11:58:07;;;;;;;11.27;10.10;;;17.80;39.80;;;;;;4998547;28;20475;-83
2021/04/30 12:00:43;;;;;;;11.13;10.17;;;15.70;40.20;;;;;;4986277;28;20470;-84
2021/04/30 12:03:21;;;;;;;10.70;9.63;;;15.30;40.30;;;;;;4994954;28;20506;-83
2021/04/30 12:05:57;;;;;;;10.30;9.40;;;15.20;39.80;;;;;;4993031;28;20758;-82
2021/04/30 12:08:35;;;;;;;10.40;9.50;;;14.70;39.90;;;;;;4994127;28;20459;-83
2021/04/30 12:11:11;;;;;;;11.60;10.60;;;15.30;40.00;;;;;;4992232;28;20904;-83
2021/04/30 12:13:46;;;;;;;10.87;9.77;;;15.40;39.90;;;;;;4999314;28;20510;-83
2021/04/30 12:16:22;;;;;;;11.27;10.17;;;15.10;40.30;;;;;;4993425;28;20508;-82
2021/04/30 12:19:01;;;;;;;11.43;10.47;;;14.40;39.90;;;;;;5003117;28;20448;-84
2021/04/30 12:21:38;;;;;;;12.43;9.90;;;14.10;40.30;;;;;;5001078;28;20541;-84
2021/04/30 12:24:13;;;;;;;11.57;10.37;;;13.90;40.20;;;;;;5007917;28;20465;-83
2021/04/30 12:26:49;;;;;;;13.17;10.00;;;14.00;40.10;;;;;;4996426;28;20809;-78
2021/04/30 12:29:27;;;;;;;10.90;9.80;;;13.80;40.40;;;;;;4991870;28;20442;-79
2021/04/30 12:32:02;;;;;;;15.30;11.33;;;13.80;40.20;;;;;;4992273;28;20485;-79
2021/04/30 12:34:42;;;;;;;11.70;10.60;;;13.60;40.80;;;;;;4991386;28;20453;-79
2021/04/30 12:37:16;;;;;;;11.97;10.60;;;13.30;40.90;;;;;;4995679;28;20450;-79
2021/04/30 12:39:52;;;;;;;13.27;10.60;;;13.30;41.30;;;;;;4994044;28;20900;-81
2021/04/30 12:42:28;;;;;;;14.30;12.23;;;13.20;41.30;;;;;;4990623;28;20537;-80
2021/04/30 12:45:03;;;;;;;15.77;12.60;;;12.80;42.00;;;;;;4994413;28;21181;-82
2021/04/30 12:47:38;;;;;;;12.67;11.37;;;12.50;41.80;;;;;;4988942;28;20456;-78
2021/04/30 12:50:14;;;;;;;12.30;11.00;;;13.00;42.30;;;;;;4990080;28;20960;-78
2021/04/30 12:52:50;;;;;;;12.67;11.37;;;13.20;42.60;;;;;;4991119;28;20461;-79
2021/04/30 12:55:40;;;;;;;13.80;10.90;;;12.80;42.40;;;;;;4993659;28;20453;-82
2021/04/30 12:58:23;;;;;;;13.00;11.70;;;12.50;42.70;;;;;;4988223;28;20492;-80
2021/04/30 13:01:10;;;;;;;16.30;13.87;;;12.60;43.00;;;;;;4988753;28;20472;-83
2021/04/30 13:03:58;;;;;;;15.70;12.60;;;12.20;43.10;;;;;;4990030;28;20443;-80
2021/04/30 13:06:38;;;;;;;15.27;13.33;;;12.30;43.40;;;;;;4987895;28;20494;-78
2021/04/30 13:09:15;;;;;;;15.57;13.43;;;12.30;43.20;;;;;;4992697;28;20452;-80
2021/04/30 13:12:06;;;;;;;15.33;13.63;;;12.20;43.50;;;;;;4989358;28;20472;-79
2021/04/30 13:14:53;;;;;;;14.43;12.37;;;12.30;43.70;;;;;;4996192;28;20975;-81
2021/04/30 13:17:29;;;;;;;13.17;11.80;;;12.50;43.40;;;;;;4989812;28;20484;-78
2021/04/30 13:20:20;;;;;;;16.73;12.10;;;12.30;42.90;;;;;;4991107;28;21046;-80
2021/04/30 13:23:04;;;;;;;11.80;10.60;;;12.10;42.90;;;;;;4989653;28;20519;-81
2021/04/30 13:25:43;;;;;;;12.47;10.10;;;12.30;43.00;;;;;;4993639;28;20465;-81
2021/04/30 13:28:21;;;;;;;13.07;10.47;;;12.20;42.80;;;;;;4988372;28;20683;-86
2021/04/30 13:31:11;;;;;;;20.40;9.07;;;12.00;43.20;;;;;;5002723;28;20533;-83
2021/04/30 13:33:46;;;;;;;10.37;9.33;;;12.00;43.70;;;;;;4968591;28;20593;-85
2021/04/30 13:36:21;;;;;;;9.77;8.67;;;11.90;44.60;;;;;;4994553;28;20457;-85